Time;durP1;ratioP1;P1;durP2;ratioP2;P2;SDS_P1;SDS_P2;PMS_P1;PMS_P2;Temp;Humidity;BMP_temperature;BMP_pressure;BME280_temperature;BME280_humidity;BME280_pressure;Samples;Min_cycle;Max_cycle;Signal;HPM_P1;HPM_P2
2021/11/22 00:00:35;;;;;;;1.02;0.40;;;;;;;-0.39;82.40;101882.97;5012378;28;20697;-75
2021/11/22 00:03:00;;;;;;;2.05;0.50;;;;;;;-0.39;82.29;101894.41;5011828;28;20037;-74
2021/11/22 00:05:28;;;;;;;0.63;0.40;;;;;;;-0.42;82.69;101899.88;5011037;28;20025;-75
2021/11/22 00:07:54;;;;;;;1.08;0.50;;;;;;;-0.60;82.55;101877.28;5012597;28;20144;-74
2021/11/22 00:10:20;;;;;;;1.30;0.32;;;;;;;-0.58;82.89;101885.97;4994587;28;20204;-74
2021/11/22 00:12:47;;;;;;;1.15;0.30;;;;;;;-0.56;82.77;101902.59;5011201;28;20033;-74
2021/11/22 00:15:15;;;;;;;1.73;0.20;;;;;;;-0.57;83.33;101914.09;5012641;28;20116;-74
2021/11/22 00:17:41;;;;;;;1.33;0.35;;;;;;;-0.57;83.23;101914.94;5011792;28;20033;-74
2021/11/22 00:20:11;;;;;;;1.92;0.38;;;;;;;-0.53;83.51;101911.16;5012799;28;20033;-74
2021/11/22 00:22:37;;;;;;;0.70;0.40;;;;;;;-0.49;83.30;101919.75;4994692;28;20041;-75
2021/11/22 00:25:04;;;;;;;0.98;0.35;;;;;;;-0.41;83.40;101916.59;5011624;28;20030;-75
2021/11/22 00:27:30;;;;;;;1.58;0.30;;;;;;;-0.40;83.08;101915.63;5013755;28;20026;-74
2021/11/22 00:29:56;;;;;;;2.75;0.38;;;;;;;-0.36;83.15;101922.44;5013355;28;20030;-74
2021/11/22 00:32:21;;;;;;;1.52;0.40;;;;;;;-0.79;82.56;101851.22;5015628;28;20674;-74
2021/11/22 00:34:47;;;;;;;0.95;0.40;;;;;;;-0.32;82.75;101931.88;5013778;28;20125;-74
2021/11/22 00:37:19;;;;;;;1.77;0.80;;;;;;;-0.38;83.05;101919.88;5017270;28;20037;-74
2021/11/22 00:39:46;;;;;;;0.95;0.32;;;;;;;-0.53;82.81;101911.16;5013128;28;20359;-74
2021/11/22 00:42:11;;;;;;;1.08;0.30;;;;;;;-0.46;83.59;101938.06;4995194;28;20112;-74
2021/11/22 00:44:38;;;;;;;1.25;0.30;;;;;;;-0.52;83.33;101925.22;5015891;28;20038;-74
2021/11/22 00:47:05;;;;;;;2.05;0.30;;;;;;;-0.54;83.62;101927.97;5016533;28;20422;-75
2021/11/22 00:49:31;;;;;;;4.03;0.50;;;;;;;-0.59;84.09;101927.44;5018313;28;20430;-74
2021/11/22 00:51:56;;;;;;;1.08;0.32;;;;;;;-0.69;83.74;101912.25;5014907;28;20029;-74
2021/11/22 00:54:22;;;;;;;3.67;0.47;;;;;;;-0.64;83.79;101929.50;5018223;28;20037;-75
2021/11/22 00:56:47;;;;;;;1.85;0.40;;;;;;;-0.68;84.16;101933.31;5016602;28;20399;-75
2021/11/22 00:59:12;;;;;;;2.83;0.55;;;;;;;-0.72;84.61;101926.53;5018848;28;20088;-74
2021/11/22 01:01:38;;;;;;;1.13;0.47;;;;;;;-0.77;84.71;101934.72;5017330;28;20041;-75
2021/11/22 01:04:05;;;;;;;1.25;0.40;;;;;;;-0.79;84.92;101936.63;5020210;28;20084;-74
2021/11/22 01:06:30;;;;;;;0.88;0.32;;;;;;;-0.83;85.03;101936.91;5021096;28;20042;-74
2021/11/22 01:08:56;;;;;;;3.67;0.60;;;;;;;-0.98;85.07;101918.44;5001005;28;20447;-74
2021/11/22 01:11:23;;;;;;;1.15;0.30;;;;;;;-0.92;84.99;101945.44;5018251;28;20448;-74
2021/11/22 01:13:49;;;;;;;1.30;0.43;;;;;;;-0.91;85.50;101947.97;5014047;28;20460;-74
2021/11/22 01:16:14;;;;;;;0.85;0.30;;;;;;;-0.95;85.73;101949.13;5017899;28;20108;-74
2021/11/22 01:18:40;;;;;;;1.95;0.65;;;;;;;-1.27;85.33;101899.13;5016722;28;20502;-74
2021/11/22 01:21:05;;;;;;;2.03;0.50;;;;;;;-1.17;85.77;101919.69;5016202;28;20018;-74
2021/11/22 01:23:32;;;;;;;3.90;0.60;;;;;;;-1.17;85.59;101924.97;5014784;28;20054;-74
2021/11/22 01:25:59;;;;;;;1.52;0.30;;;;;;;-1.11;85.67;101936.00;5017006;28;20030;-74
2021/11/22 01:28:25;;;;;;;1.63;0.40;;;;;;;-1.17;85.54;101931.09;5014500;28;20045;-74
2021/11/22 01:30:51;;;;;;;2.40;0.40;;;;;;;-1.23;85.75;101928.84;5016604;28;20057;-74
2021/11/22 01:33:16;;;;;;;1.45;0.45;;;;;;;-1.31;85.83;101923.19;5013897;28;20399;-74
2021/11/22 01:35:45;;;;;;;1.23;0.22;;;;;;;-1.23;86.28;101942.03;5015733;28;20041;-74
2021/11/22 01:38:12;;;;;;;0.80;0.30;;;;;;;-1.33;86.27;101931.19;5014968;28;20041;-74
2021/11/22 01:40:38;;;;;;;1.92;0.32;;;;;;;-1.44;86.49;101929.22;4997692;28;20096;-74
2021/11/22 01:43:03;;;;;;;3.22;0.40;;;;;;;-1.52;86.36;101920.94;5015394;28;20034;-74
2021/11/22 01:45:31;;;;;;;0.93;0.40;;;;;;;-1.40;86.75;101944.88;5018922;28;20439;-74
2021/11/22 01:47:58;;;;;;;1.83;0.30;;;;;;;-1.45;86.79;101946.03;5002881;28;20034;-75
2021/11/22 01:50:25;;;;;;;1.05;0.50;;;;;;;-1.49;86.94;101949.78;5014706;28;20025;-75
2021/11/22 01:52:51;;;;;;;0.82;0.32;;;;;;;-1.51;86.71;101943.75;5014642;28;20105;-74
2021/11/22 01:55:21;;;;;;;3.88;0.65;;;;;;;-1.55;86.73;101941.41;5014337;28;20068;-74
2021/11/22 01:57:48;;;;;;;1.38;0.40;;;;;;;-1.53;87.02;101942.97;5014019;28;20033;-74
2021/11/22 02:00:19;;;;;;;1.30;0.50;;;;;;;-1.53;86.83;101947.41;5016038;28;20021;-74
2021/11/22 02:02:45;;;;;;;1.15;0.40;;;;;;;-1.51;86.95;101943.75;5030911;28;20121;-74
2021/11/22 02:05:11;;;;;;;0.70;0.30;;;;;;;-1.52;86.34;101947.34;5015717;28;20103;-74
2021/11/22 02:07:37;;;;;;;1.52;0.32;;;;;;;-1.63;86.62;101931.28;5014771;28;20475;-74
2021/11/22 02:10:07;;;;;;;1.00;0.55;;;;;;;-1.57;86.30;101946.75;5021480;28;20121;-74
2021/11/22 02:12:33;;;;;;;1.10;0.40;;;;;;;-1.60;86.45;101946.94;5012806;28;20387;-75
2021/11/22 02:14:59;;;;;;;3.13;0.50;;;;;;;-1.62;86.37;101945.31;4999356;28;20057;-73
2021/11/22 02:17:25;;;;;;;1.77;0.43;;;;;;;-1.64;86.99;101952.50;5014885;28;20053;-74
2021/11/22 02:20:03;;;;;;;2.00;0.55;;;;;;;-1.70;86.66;101958.97;5014566;28;20045;-74
2021/11/22 02:22:31;;;;;;;1.38;0.30;;;;;;;-1.82;86.71;101941.22;5017273;28;20041;-74
2021/11/22 02:24:57;;;;;;;0.82;0.30;;;;;;;-1.99;87.70;101948.34;5017605;28;20026;-74
2021/11/22 02:27:23;;;;;;;1.70;0.40;;;;;;;-1.95;87.99;101959.59;4998280;28;20136;-75
2021/11/22 02:29:48;;;;;;;2.65;0.32;;;;;;;-1.95;87.76;101957.81;5012372;28;20109;-74
2021/11/22 02:32:14;;;;;;;3.15;0.47;;;;;;;-2.00;88.07;101951.94;4998628;28;20124;-74
2021/11/22 02:34:40;;;;;;;4.30;0.82;;;;;;;-1.95;87.76;101963.09;5011843;28;20479;-74
2021/11/22 02:37:06;;;;;;;5.22;0.50;;;;;;;-1.96;87.80;101958.72;5014052;28;20030;-74
2021/11/22 02:39:32;;;;;;;1.15;0.40;;;;;;;-1.97;88.22;101957.03;5015354;28;20375;-74
2021/11/22 02:41:57;;;;;;;2.05;0.30;;;;;;;-2.08;88.43;101937.53;5014612;28;20044;-74
2021/11/22 02:44:23;;;;;;;1.08;0.50;;;;;;;-2.13;88.22;101937.75;5015110;28;20065;-74
2021/11/22 02:46:49;;;;;;;2.35;0.43;;;;;;;-2.18;88.57;101934.56;5015270;28;20045;-74
2021/11/22 02:49:16;;;;;;;1.83;0.40;;;;;;;-2.17;88.75;101938.88;5014192;28;20399;-74
2021/11/22 02:51:42;;;;;;;0.75;0.30;;;;;;;-2.29;89.19;101943.06;5013358;28;20358;-74
2021/11/22 02:54:07;;;;;;;1.08;0.47;;;;;;;-2.30;88.86;101948.44;5012959;28;20029;-74
2021/11/22 02:56:34;;;;;;;1.17;0.70;;;;;;;-2.46;88.77;101922.94;5022142;28;20034;-74
2021/11/22 02:59:00;;;;;;;1.50;0.43;;;;;;;-2.31;89.12;101952.03;5013080;28;20086;-74
2021/11/22 03:01:26;;;;;;;1.10;0.40;;;;;;;-2.29;88.91;101952.78;5014012;28;20022;-74
2021/11/22 03:03:55;;;;;;;1.98;0.40;;;;;;;-2.58;89.36;101899.97;5014250;28;20540;-74
2021/11/22 03:06:22;;;;;;;0.88;0.40;;;;;;;-2.28;89.23;101946.59;5011839;28;20483;-74
2021/11/22 03:08:49;;;;;;;2.25;0.40;;;;;;;-2.40;89.52;101925.25;5014046;28;20030;-74
2021/11/22 03:11:16;;;;;;;3.13;0.40;;;;;;;-2.36;89.47;101949.63;5013251;28;20165;-74
2021/11/22 03:13:43;;;;;;;2.55;0.50;;;;;;;-2.38;89.56;101962.91;5012120;28;20037;-74
2021/11/22 03:16:10;;;;;;;2.72;0.35;;;;;;;-2.34;89.77;101968.03;5016975;28;20341;-75
2021/11/22 03:18:35;;;;;;;0.75;0.47;;;;;;;-2.33;89.79;101975.81;5014363;28;20041;-74
2021/11/22 03:21:02;;;;;;;5.03;0.50;;;;;;;-2.36;89.63;101976.84;5019924;28;20479;-74
2021/11/22 03:23:30;;;;;;;2.75;0.40;;;;;;;-2.43;90.30;101962.31;5014414;28;20033;-74
2021/11/22 03:25:56;;;;;;;2.83;0.35;;;;;;;-2.44;90.17;101962.41;5013193;28;20113;-74
2021/11/22 03:28:24;;;;;;;0.98;0.40;;;;;;;-2.39;89.74;101987.56;5011086;28;20122;-74
2021/11/22 03:30:50;;;;;;;1.23;0.30;;;;;;;-2.39;90.32;101979.66;5013655;28;20364;-74
2021/11/22 03:33:17;;;;;;;1.02;0.40;;;;;;;-2.41;90.30;101988.59;5019940;28;20084;-74
2021/11/22 03:35:43;;;;;;;1.02;0.30;;;;;;;-2.50;90.00;101974.13;5017900;28;20118;-74
2021/11/22 03:38:11;;;;;;;1.10;0.30;;;;;;;-2.55;90.05;101981.47;5015232;28;20134;-73
2021/11/22 03:40:38;;;;;;;2.60;0.40;;;;;;;-2.52;90.53;101998.88;5013241;28;20456;-75
2021/11/22 03:45:34;;;;;;;2.08;0.50;;;;;;;-2.68;90.85;101980.41;5013926;28;20463;-74
2021/11/22 03:48:00;;;;;;;4.47;0.50;;;;;;;-2.75;90.84;101960.63;5012812;28;20033;-74
2021/11/22 03:50:25;;;;;;;2.22;0.30;;;;;;;-2.75;90.71;101958.84;5012936;28;20041;-74
2021/11/22 03:52:51;;;;;;;1.83;0.65;;;;;;;-2.48;90.97;102000.44;5011968;28;20471;-74
2021/11/22 03:55:16;;;;;;;1.00;0.30;;;;;;;-2.58;90.76;101981.63;5012850;28;20491;-74
2021/11/22 03:57:42;;;;;;;3.88;0.50;;;;;;;-2.61;90.82;101977.38;5011603;28;20444;-74
2021/11/22 04:00:10;;;;;;;1.35;0.30;;;;;;;-2.54;91.35;101993.69;5011639;28;20455;-74
2021/11/22 04:02:36;;;;;;;3.45;0.40;;;;;;;-2.55;91.38;102001.69;5017201;28;20025;-74
2021/11/22 04:05:03;;;;;;;0.80;0.38;;;;;;;-2.56;91.16;102010.53;5013646;28;20340;-74
2021/11/22 04:07:29;;;;;;;0.60;0.30;;;;;;;-2.57;90.93;102001.78;5013748;28;20045;-74
2021/11/22 04:09:55;;;;;;;3.22;0.52;;;;;;;-2.58;91.43;102000.09;5009889;28;20022;-74
2021/11/22 04:12:22;;;;;;;0.98;0.50;;;;;;;-2.62;91.39;101986.22;5012411;28;20037;-74
2021/11/22 04:14:47;;;;;;;0.70;0.40;;;;;;;-2.61;91.51;101990.56;5012149;28;20635;-74
2021/11/22 04:17:12;;;;;;;1.48;0.50;;;;;;;-2.60;91.60;101994.03;5011692;28;20164;-74
2021/11/22 04:19:38;;;;;;;1.13;0.40;;;;;;;-2.61;91.52;101992.34;5013316;28;20052;-74
2021/11/22 04:22:05;;;;;;;1.70;0.47;;;;;;;-2.69;91.80;101974.31;5010187;28;20021;-74
2021/11/22 04:24:31;;;;;;;1.33;0.50;;;;;;;-2.67;91.89;101985.63;4996112;28;20041;-74
2021/11/22 04:26:57;;;;;;;4.47;0.52;;;;;;;-2.76;91.75;101972.94;5011323;28;20356;-74
2021/11/22 04:29:22;;;;;;;3.78;0.40;;;;;;;-2.72;91.59;101986.78;5015914;28;20070;-74
2021/11/22 04:31:48;;;;;;;1.23;0.40;;;;;;;-2.76;92.04;101988.75;5013956;28;20026;-74
2021/11/22 04:34:13;;;;;;;0.93;0.40;;;;;;;-2.78;91.71;101976.59;4995029;28;20053;-74
2021/11/22 04:36:39;;;;;;;1.60;0.40;;;;;;;-2.94;91.96;101959.00;5012334;28;20057;-74
2021/11/22 04:39:04;;;;;;;3.13;0.50;;;;;;;-2.91;92.27;101971.16;5011821;28;20423;-73
2021/11/22 04:41:30;;;;;;;2.30;0.43;;;;;;;-3.01;91.88;101970.81;5011211;28;20249;-74
2021/11/22 04:43:55;;;;;;;5.00;0.70;;;;;;;-2.98;92.31;101980.31;5012742;28;20093;-74
2021/11/22 04:46:22;;;;;;;5.03;0.60;;;;;;;-2.95;92.21;101978.34;5016216;28;20077;-74
2021/11/22 04:48:48;;;;;;;2.10;0.30;;;;;;;-3.02;92.11;101971.72;5012400;28;20033;-74
2021/11/22 04:51:13;;;;;;;1.83;0.40;;;;;;;-3.07;92.63;101957.97;5011038;28;20041;-74
2021/11/22 04:53:38;;;;;;;5.18;0.70;;;;;;;-2.96;92.60;101983.72;5012836;28;20026;-74
2021/11/22 04:56:04;;;;;;;1.33;0.40;;;;;;;-2.98;92.44;101986.44;5012804;28;20246;-74
2021/11/22 04:58:30;;;;;;;1.75;0.60;;;;;;;-2.98;92.27;101990.84;4995578;28;20026;-74
2021/11/22 05:00:56;;;;;;;1.70;0.70;;;;;;;-3.29;92.59;101944.25;5011881;28;20456;-74
2021/11/22 05:03:22;;;;;;;2.25;0.50;;;;;;;-3.03;92.69;101998.16;5009725;28;20034;-74
2021/11/22 05:05:47;;;;;;;2.42;0.40;;;;;;;-3.15;92.68;101983.84;4996138;28;20038;-74
2021/11/22 05:08:12;;;;;;;2.85;0.60;;;;;;;-3.08;92.49;102006.28;5011678;28;20033;-74
2021/11/22 05:10:42;;;;;;;1.40;0.65;;;;;;;-3.13;92.91;102000.44;4998190;28;20030;-75
2021/11/22 05:13:10;;;;;;;1.85;0.63;;;;;;;-3.11;93.11;102009.94;4994429;28;20034;-74
2021/11/22 05:15:37;;;;;;;3.33;0.40;;;;;;;-3.13;93.06;102006.53;5006262;28;20025;-73
2021/11/22 05:18:04;;;;;;;1.40;0.40;;;;;;;-3.13;92.71;102013.59;5010278;28;20172;-74
2021/11/22 05:20:29;;;;;;;0.95;0.50;;;;;;;-3.17;92.85;102009.44;5010485;28;20493;-74
2021/11/22 05:22:56;;;;;;;3.15;0.90;;;;;;;-3.34;93.14;101991.88;5012452;28;20045;-74
2021/11/22 05:25:23;;;;;;;2.60;0.93;;;;;;;-3.23;93.02;102012.38;5010414;28;20026;-74
2021/11/22 05:27:49;;;;;;;3.10;1.02;;;;;;;-3.35;93.05;102005.97;5013341;28;20029;-74
2021/11/22 05:30:15;;;;;;;2.53;0.82;;;;;;;-3.35;92.98;102017.31;5012859;28;20541;-74
2021/11/22 05:32:41;;;;;;;1.67;0.60;;;;;;;-3.51;93.11;101994.53;5015630;28;20038;-74
2021/11/22 05:35:07;;;;;;;1.90;0.60;;;;;;;-3.60;93.58;101990.59;5015484;28;20474;-75
2021/11/22 05:37:35;;;;;;;4.50;0.80;;;;;;;-3.53;93.33;102020.06;5021415;28;20037;-74
2021/11/22 05:40:01;;;;;;;2.03;0.57;;;;;;;-3.88;93.15;101956.94;4989839;28;20021;-74
2021/11/22 05:42:28;;;;;;;3.33;0.80;;;;;;;-3.57;93.50;102009.72;5009854;28;20037;-74
2021/11/22 05:44:55;;;;;;;2.40;0.98;;;;;;;-3.67;93.34;101989.22;5021446;28;20383;-74
2021/11/22 05:47:20;;;;;;;6.22;0.85;;;;;;;-3.90;93.45;101946.53;4987000;28;20244;-74
2021/11/22 05:49:46;;;;;;;2.55;0.90;;;;;;;-3.53;93.43;102004.28;5003835;28;20391;-75
2021/11/22 05:52:13;;;;;;;2.30;0.80;;;;;;;-3.49;93.39;101997.94;5008568;28;20034;-74
2021/11/22 05:54:52;;;;;;;4.53;1.20;;;;;;;-3.60;93.42;101977.44;5008108;28;20061;-74
2021/11/22 05:57:19;;;;;;;2.60;0.80;;;;;;;-3.66;93.43;101969.88;5004240;28;20026;-75
2021/11/22 05:59:45;;;;;;;2.25;0.80;;;;;;;-3.51;93.46;101990.09;5002433;28;20040;-74
2021/11/22 06:02:12;;;;;;;4.32;1.00;;;;;;;-3.56;93.38;101971.09;5003781;28;20049;-74
2021/11/22 06:04:37;;;;;;;3.17;0.80;;;;;;;-3.32;93.21;102018.97;5002086;28;20025;-74
2021/11/22 06:07:03;;;;;;;3.08;0.95;;;;;;;-3.47;93.17;101978.50;5001460;28;20081;-74
2021/11/22 06:09:29;;;;;;;1.67;0.75;;;;;;;-3.39;93.35;101986.84;5003251;28;20030;-74
2021/11/22 06:11:55;;;;;;;4.95;0.95;;;;;;;-3.18;93.35;102023.50;4990698;28;20026;-75
2021/11/22 06:14:21;;;;;;;5.35;1.00;;;;;;;-3.09;93.61;102020.38;5004095;28;20042;-74
2021/11/22 06:16:46;;;;;;;5.03;1.38;;;;;;;-3.18;93.28;102003.31;5005282;28;20040;-74
2021/11/22 06:19:12;;;;;;;4.25;1.25;;;;;;;-3.14;93.55;101999.59;5004421;28;20042;-74
2021/11/22 06:21:37;;;;;;;3.92;1.00;;;;;;;-3.14;93.54;101989.06;5005600;28;20045;-75
2021/11/22 06:24:04;;;;;;;4.47;1.05;;;;;;;-3.16;93.47;101996.16;5002539;28;20044;-74
2021/11/22 06:26:30;;;;;;;4.22;1.00;;;;;;;-3.28;93.43;101982.78;5003136;28;20040;-74
2021/11/22 06:28:56;;;;;;;3.88;1.40;;;;;;;-3.11;93.80;102014.38;5003117;28;20381;-74
2021/11/22 06:31:21;;;;;;;5.55;0.88;;;;;;;-2.97;93.80;102022.38;5003377;28;20124;-74
2021/11/22 06:33:48;;;;;;;4.25;1.13;;;;;;;-2.87;93.93;102023.59;5012257;28;20022;-75
2021/11/22 06:36:14;;;;;;;2.42;0.90;;;;;;;-3.02;93.40;101979.63;5003777;28;20204;-75
2021/11/22 06:38:39;;;;;;;2.78;0.90;;;;;;;-2.76;93.24;102019.53;5004434;28;20247;-74
2021/11/22 06:41:05;;;;;;;2.15;1.02;;;;;;;-2.67;93.48;102027.78;5003833;28;20112;-74
2021/11/22 06:43:30;;;;;;;2.83;1.15;;;;;;;-2.57;93.41;102024.66;5002720;28;20038;-74
2021/11/22 06:45:56;;;;;;;4.95;1.23;;;;;;;-2.49;93.51;102033.81;5003400;28;20034;-74
2021/11/22 06:48:22;;;;;;;3.25;1.10;;;;;;;-2.47;93.65;102020.56;5005947;28;20443;-74
2021/11/22 06:50:47;;;;;;;5.25;1.38;;;;;;;-2.30;93.72;102033.66;5004500;28;20074;-75
2021/11/22 06:53:12;;;;;;;3.28;1.33;;;;;;;-2.23;93.82;102020.97;4984760;28;20136;-74
2021/11/22 06:55:38;;;;;;;5.22;1.85;;;;;;;-2.24;93.71;102006.09;4985296;28;20022;-74
2021/11/22 06:58:04;;;;;;;3.33;1.70;;;;;;;-2.02;93.78;102027.69;5002228;28;20545;-74
2021/11/22 07:00:29;;;;;;;4.35;2.03;;;;;;;-1.99;93.94;102016.94;4986031;28;20042;-75
2021/11/22 07:02:55;;;;;;;5.20;1.90;;;;;;;-1.94;94.14;102020.16;5002352;28;20042;-74
2021/11/22 07:05:23;;;;;;;6.20;2.50;;;;;;;-1.78;94.11;102016.66;4974473;28;20038;-74
2021/11/22 07:07:49;;;;;;;5.20;2.38;;;;;;;-1.59;94.47;102016.41;5009840;28;20133;-74
2021/11/22 07:10:18;;;;;;;5.25;2.25;;;;;;;-1.42;94.65;102021.56;5014011;28;20033;-74
2021/11/22 07:12:45;;;;;;;3.47;2.33;;;;;;;-1.46;94.78;101997.13;5005837;28;20038;-74
2021/11/22 07:15:10;;;;;;;5.38;2.53;;;;;;;-1.25;94.17;102016.09;5001304;28;20095;-74
2021/11/22 07:17:36;;;;;;;4.40;1.90;;;;;;;-1.28;94.85;101999.59;5003906;28;20033;-74
2021/11/22 07:20:03;;;;;;;3.03;1.80;;;;;;;-1.11;94.51;102017.06;5006684;28;20022;-74
2021/11/22 07:22:28;;;;;;;5.97;1.92;;;;;;;-1.14;95.18;102004.88;5003677;28;20055;-74
2021/11/22 07:24:54;;;;;;;3.95;1.67;;;;;;;-1.05;95.41;102022.81;4989961;28;20463;-74
2021/11/22 07:27:25;;;;;;;5.32;1.67;;;;;;;-1.02;95.07;102024.41;4999340;28;20100;-74
2021/11/22 07:29:51;;;;;;;6.82;2.22;;;;;;;-0.92;95.36;102033.47;5000563;28;20112;-74
2021/11/22 07:32:16;;;;;;;5.03;2.30;;;;;;;-0.85;95.16;102041.88;4999664;28;20038;-74
2021/11/22 07:34:42;;;;;;;4.97;1.95;;;;;;;-0.80;95.38;102035.34;5004039;28;20423;-74
2021/11/22 07:37:08;;;;;;;4.07;2.10;;;;;;;-0.77;95.65;102024.56;5002916;28;20286;-74
2021/11/22 07:39:34;;;;;;;4.78;2.00;;;;;;;-0.74;95.39;102023.53;4986115;28;20127;-74
2021/11/22 07:41:59;;;;;;;12.85;2.05;;;;;;;-0.86;95.59;102000.50;5000680;28;20128;-74
2021/11/22 07:44:25;;;;;;;3.72;1.80;;;;;;;-0.69;95.46;102026.75;5003197;28;20022;-75
2021/11/22 07:46:53;;;;;;;5.60;2.20;;;;;;;-0.69;95.42;102016.19;5002133;28;20045;-74
2021/11/22 07:49:18;;;;;;;5.05;1.80;;;;;;;-0.60;95.56;102034.09;5002399;28;20026;-74
2021/11/22 07:51:43;;;;;;;3.60;1.70;;;;;;;-0.58;95.81;102029.56;5000991;28;20034;-74
2021/11/22 07:54:09;;;;;;;7.72;1.92;;;;;;;-0.55;95.85;102034.66;5001705;28;20026;-74
2021/11/22 07:56:36;;;;;;;6.90;1.95;;;;;;;-0.52;95.56;102031.00;4984893;28;20030;-74
2021/11/22 07:59:01;;;;;;;8.60;2.28;;;;;;;-0.50;95.40;102029.94;5003440;28;20083;-74
2021/11/22 08:01:27;;;;;;;4.38;1.88;;;;;;;-0.47;95.76;102029.72;5002480;28;20038;-74
2021/11/22 08:03:52;;;;;;;5.75;2.28;;;;;;;-0.43;95.74;102027.75;4985170;28;20758;-74
2021/11/22 08:06:19;;;;;;;5.00;1.77;;;;;;;-0.34;95.66;102035.09;5003264;28;20239;-75
2021/11/22 08:08:46;;;;;;;5.07;1.80;;;;;;;-0.37;95.52;102023.84;5001088;28;20037;-74
2021/11/22 08:13:37;;;;;;;8.00;2.10;;;;;;;-0.25;95.31;102037.16;5000805;28;20076;-75
2021/11/22 08:16:05;;;;;;;9.38;2.22;;;;;;;-0.20;95.60;102044.78;5005380;28;20169;-74
2021/11/22 08:18:31;;;;;;;5.30;2.60;;;;;;;-0.21;95.57;102037.78;4987492;28;20116;-73
2021/11/22 08:20:58;;;;;;;5.75;2.10;;;;;;;-0.17;95.39;102039.28;5001235;28;20126;-74
2021/11/22 08:23:24;;;;;;;13.98;2.38;;;;;;;-0.28;95.80;102008.25;5001599;28;20026;-74
2021/11/22 08:25:50;;;;;;;11.07;2.30;;;;;;;-0.04;95.71;102026.13;5005579;28;20030;-76
2021/11/22 08:28:19;;;;;;;7.30;2.15;;;;;;;0.03;95.67;102023.91;4985021;28;20022;-73
2021/11/22 08:30:47;;;;;;;5.40;2.25;;;;;;;0.09;95.84;102026.16;4997534;28;20053;-74
2021/11/22 08:33:14;;;;;;;5.45;1.95;;;;;;;0.18;95.75;102022.91;5001782;28;20026;-74
2021/11/22 08:35:42;;;;;;;6.40;1.98;;;;;;;0.20;95.56;102013.09;5002291;28;20366;-75
2021/11/22 08:38:08;;;;;;;4.05;1.88;;;;;;;0.41;95.76;102035.47;5001635;28;20576;-74
2021/11/22 08:40:36;;;;;;;8.85;2.00;;;;;;;0.53;95.55;102035.56;5005550;28;20033;-76
2021/11/22 08:43:02;;;;;;;5.18;1.88;;;;;;;0.53;96.27;102027.63;5007330;28;20030;-74
2021/11/22 08:45:28;;;;;;;7.95;2.50;;;;;;;0.65;96.20;102034.75;4991088;28;20040;-76
2021/11/22 08:47:55;;;;;;;9.95;2.10;;;;;;;0.71;96.39;102029.03;5002810;28;20058;-75
2021/11/22 08:50:22;;;;;;;4.82;1.80;;;;;;;0.67;96.80;102004.56;5006478;28;20034;-76
2021/11/22 08:52:48;;;;;;;8.90;2.00;;;;;;;0.86;96.62;102020.06;5003106;28;20053;-74
2021/11/22 08:55:15;;;;;;;4.05;1.77;;;;;;;0.98;96.34;102038.69;5004452;28;20053;-74
2021/11/22 08:57:42;;;;;;;3.28;2.00;;;;;;;1.05;96.63;102030.19;5002919;28;20064;-76
2021/11/22 09:00:21;;;;;;;7.10;2.30;;;;;;;0.68;96.32;101955.09;5001411;28;20041;-73
2021/11/22 09:02:46;;;;;;;4.03;2.28;;;;;;;1.13;96.89;102011.97;5006920;28;20023;-74
2021/11/22 09:05:13;;;;;;;4.32;2.20;;;;;;;1.23;96.74;102012.16;5003028;28;20886;-74
2021/11/22 09:07:38;;;;;;;5.90;1.63;;;;;;;1.32;96.85;102016.78;5005077;28;20061;-74
2021/11/22 09:10:06;;;;;;;6.10;2.35;;;;;;;1.30;97.01;102007.28;5004149;28;20034;-74
2021/11/22 09:12:32;;;;;;;5.38;2.13;;;;;;;1.34;96.92;102001.63;5002059;28;20033;-73
2021/11/22 09:14:58;;;;;;;6.50;2.47;;;;;;;1.46;97.12;102013.19;5003469;28;20042;-74
2021/11/22 09:17:25;;;;;;;7.40;2.55;;;;;;;1.45;96.97;101992.91;5006418;28;20479;-74
2021/11/22 09:19:50;;;;;;;5.68;1.98;;;;;;;1.54;97.11;102002.00;5002329;28;20077;-74
2021/11/22 09:22:16;;;;;;;5.10;2.03;;;;;;;1.63;97.04;102004.00;5004002;28;20522;-75
2021/11/22 09:24:42;;;;;;;6.07;2.28;;;;;;;1.61;96.64;101992.66;5004958;28;20041;-74
2021/11/22 09:27:08;;;;;;;6.68;2.38;;;;;;;1.71;96.51;102006.94;5003445;28;20029;-75
2021/11/22 09:29:34;;;;;;;7.05;2.42;;;;;;;1.71;96.91;102001.63;4988457;28;20125;-74
2021/11/22 09:32:00;;;;;;;6.43;2.33;;;;;;;1.79;96.88;101999.28;5004291;28;20713;-74
2021/11/22 09:34:26;;;;;;;4.32;1.90;;;;;;;1.82;96.57;102003.47;5006399;28;20025;-74
2021/11/22 09:36:51;;;;;;;5.47;1.90;;;;;;;1.86;96.35;101994.34;5005990;28;20038;-74
2021/11/22 09:39:18;;;;;;;3.42;1.20;;;;;;;1.95;96.13;101988.34;5019764;28;20345;-74
2021/11/22 09:41:48;;;;;;;3.25;1.20;;;;;;;2.06;95.90;101990.22;5005730;28;20034;-74
2021/11/22 09:44:14;;;;;;;4.28;1.00;;;;;;;2.19;95.70;101985.69;5003715;28;20176;-74
2021/11/22 09:46:41;;;;;;;2.20;0.70;;;;;;;2.30;95.24;101977.75;5004995;28;20137;-74
2021/11/22 09:49:07;;;;;;;7.97;1.10;;;;;;;2.34;95.14;101959.75;5004552;28;20033;-74
2021/11/22 09:51:33;;;;;;;3.58;0.75;;;;;;;2.50;94.70;101964.75;5002821;28;20060;-75
2021/11/22 09:54:03;;;;;;;2.92;0.90;;;;;;;2.56;93.84;101957.16;5004447;28;20025;-74
2021/11/22 09:56:28;;;;;;;6.20;1.20;;;;;;;2.75;93.27;101961.06;5004785;28;20034;-74
2021/11/22 09:58:54;;;;;;;4.10;0.52;;;;;;;2.70;93.02;101915.38;5004361;28;20041;-74
2021/11/22 10:01:21;;;;;;;2.65;0.65;;;;;;;3.02;92.29;101937.59;4988881;28;20026;-75
2021/11/22 10:04:08;;;;;;;3.85;0.70;;;;;;;3.20;92.04;101939.75;5007106;28;20053;-75
2021/11/22 10:06:54;;;;;;;7.07;0.70;;;;;;;3.35;91.04;101921.72;5007752;28;20613;-74
2021/11/22 10:09:36;;;;;;;2.38;0.50;;;;;;;3.47;91.35;101918.88;5006093;28;20036;-74
2021/11/22 10:12:24;;;;;;;2.38;0.50;;;;;;;3.62;90.75;101926.59;5005021;28;20034;-74
2021/11/22 10:14:58;;;;;;;2.58;0.55;;;;;;;3.70;89.95;101900.19;5009194;28;20739;-74
2021/11/22 10:17:36;;;;;;;3.75;0.70;;;;;;;3.48;90.07;101853.22;5003977;28;20049;-74
2021/11/22 10:20:11;;;;;;;3.17;0.47;;;;;;;3.92;89.36;101910.72;5004226;28;20030;-74
2021/11/22 10:22:48;;;;;;;2.15;0.40;;;;;;;4.03;89.33;101912.47;5004231;28;20418;-74
2021/11/22 10:25:38;;;;;;;4.22;0.47;;;;;;;3.92;88.39;101868.13;5004417;28;20113;-74
2021/11/22 10:28:09;;;;;;;3.53;0.85;;;;;;;4.23;88.13;101903.66;5005561;28;20030;-74
2021/11/22 10:30:39;;;;;;;3.22;0.50;;;;;;;4.27;86.93;101903.38;5004886;28;20359;-75
2021/11/22 10:33:06;;;;;;;4.80;0.65;;;;;;;4.31;87.17;101905.69;5003686;28;20030;-74
2021/11/22 10:35:34;;;;;;;1.80;0.52;;;;;;;4.41;86.82;101897.75;5005408;28;20037;-75
2021/11/22 10:38:15;;;;;;;4.18;0.60;;;;;;;4.43;85.91;101893.94;5005918;28;20026;-74
2021/11/22 10:40:49;;;;;;;10.93;1.30;;;;;;;4.52;85.66;101900.31;5006732;28;20033;-75
2021/11/22 10:43:16;;;;;;;1.83;0.50;;;;;;;4.30;84.99;101840.03;5010109;28;20099;-74
2021/11/22 10:45:46;;;;;;;5.00;0.80;;;;;;;4.69;84.67;101894.34;5006019;28;20060;-75
2021/11/22 10:48:22;;;;;;;7.63;1.27;;;;;;;4.60;83.83;101873.84;5004803;28;20026;-74
2021/11/22 10:50:53;;;;;;;5.78;0.70;;;;;;;4.63;84.18;101862.88;5003468;28;20125;-75
2021/11/22 10:53:26;;;;;;;5.50;0.93;;;;;;;4.87;83.05;101877.75;5006124;28;20040;-75
2021/11/22 10:55:52;;;;;;;3.83;0.60;;;;;;;4.90;81.81;101866.78;5005061;28;20477;-75
2021/11/22 10:58:31;;;;;;;4.65;0.90;;;;;;;5.11;80.65;101878.22;5003766;28;20732;-75
2021/11/22 11:00:57;;;;;;;5.63;0.60;;;;;;;5.25;79.95;101882.31;5004760;28;20073;-74
2021/11/22 11:03:26;;;;;;;3.17;0.70;;;;;;;5.25;79.80;101882.31;5003365;28;20034;-75
2021/11/22 11:05:57;;;;;;;3.75;0.68;;;;;;;5.30;78.50;101872.06;5005737;28;20141;-74
2021/11/22 11:08:28;;;;;;;4.82;0.80;;;;;;;5.43;77.70;101874.47;5003466;28;20045;-74
2021/11/22 11:11:12;;;;;;;4.95;1.00;;;;;;;5.50;77.22;101870.25;5000934;28;20473;-74
2021/11/22 11:13:47;;;;;;;3.17;0.60;;;;;;;5.37;77.04;101841.19;5001868;28;20026;-75
2021/11/22 11:16:14;;;;;;;4.43;0.85;;;;;;;5.53;77.54;101867.31;5002842;28;20036;-74
2021/11/22 11:18:40;;;;;;;4.55;0.70;;;;;;;5.64;77.41;101864.50;5002923;28;20049;-75
2021/11/22 11:21:06;;;;;;;4.65;0.77;;;;;;;5.59;78.27;101849.88;5002923;28;20026;-74
2021/11/22 11:23:32;;;;;;;4.15;0.52;;;;;;;5.29;79.43;101857.03;5004709;28;20045;-74
2021/11/22 11:25:58;;;;;;;6.60;0.88;;;;;;;5.29;79.69;101848.19;5003743;28;20045;-74
2021/11/22 11:28:24;;;;;;;5.35;0.85;;;;;;;5.52;78.54;101846.09;5002865;28;20113;-74
2021/11/22 11:30:50;;;;;;;6.65;0.80;;;;;;;5.52;78.46;101844.25;5002393;28;20394;-74